sensor_id;sensor_type;location;lat;lon;timestamp;pressure;altitude;pressure_sealevel;temperature;humidity
21838;BME280;11081;45.946;6.140;2023-12-28T00:00:31;95800.22;;;5.67;79.81
21838;BME280;11081;45.946;6.140;2023-12-28T00:02:59;95797.03;;;5.57;80.80
21838;BME280;11081;45.946;6.140;2023-12-28T00:05:27;95789.09;;;5.58;79.74
21838;BME280;11081;45.946;6.140;2023-12-28T00:07:55;95795.88;;;5.59;80.06
21838;BME280;11081;45.946;6.140;2023-12-28T00:10:26;95792.16;;;5.62;80.93
21838;BME280;11081;45.946;6.140;2023-12-28T00:12:54;95785.09;;;5.56;80.61
21838;BME280;11081;45.946;6.140;2023-12-28T00:15:24;95778.66;;;5.51;82.45
21838;BME280;11081;45.946;6.140;2023-12-28T00:17:52;95779.56;;;5.59;81.89
21838;BME280;11081;45.946;6.140;2023-12-28T00:20:20;95783.44;;;5.63;82.09
21838;BME280;11081;45.946;6.140;2023-12-28T00:22:48;95779.19;;;5.62;82.63
21838;BME280;11081;45.946;6.140;2023-12-28T00:25:16;95764.97;;;5.66;82.74
21838;BME280;11081;45.946;6.140;2023-12-28T00:27:44;95775.31;;;5.66;82.97
21838;BME280;11081;45.946;6.140;2023-12-28T00:30:13;95770.13;;;5.66;83.89
21838;BME280;11081;45.946;6.140;2023-12-28T00:32:45;95773.09;;;5.77;83.35
21838;BME280;11081;45.946;6.140;2023-12-28T00:35:13;95766.06;;;5.86;83.32
21838;BME280;11081;45.946;6.140;2023-12-28T00:37:41;95774.81;;;5.85;83.09
21838;BME280;11081;45.946;6.140;2023-12-28T00:40:10;95772.28;;;5.77;83.55
21838;BME280;11081;45.946;6.140;2023-12-28T00:42:38;95765.50;;;5.76;83.70
21838;BME280;11081;45.946;6.140;2023-12-28T00:45:08;95763.44;;;5.71;84.00
21838;BME280;11081;45.946;6.140;2023-12-28T00:47:36;95772.66;;;5.74;84.11
21838;BME280;11081;45.946;6.140;2023-12-28T00:50:06;95764.88;;;5.74;84.46
21838;BME280;11081;45.946;6.140;2023-12-28T00:52:34;95766.03;;;5.71;85.83
21838;BME280;11081;45.946;6.140;2023-12-28T00:55:03;95757.28;;;5.72;85.62
21838;BME280;11081;45.946;6.140;2023-12-28T00:57:31;95761.38;;;5.67;84.73
21838;BME280;11081;45.946;6.140;2023-12-28T01:00:00;95759.16;;;5.64;84.92
21838;BME280;11081;45.946;6.140;2023-12-28T01:02:28;95765.88;;;5.50;84.75
21838;BME280;11081;45.946;6.140;2023-12-28T01:04:56;95762.38;;;5.43;85.16
21838;BME280;11081;45.946;6.140;2023-12-28T01:07:26;95761.28;;;5.37;85.60
21838;BME280;11081;45.946;6.140;2023-12-28T01:09:54;95768.75;;;5.32;85.85
21838;BME280;11081;45.946;6.140;2023-12-28T01:12:24;95764.84;;;5.36;85.34
21838;BME280;11081;45.946;6.140;2023-12-28T01:14:52;95762.59;;;5.33;85.89
21838;BME280;11081;45.946;6.140;2023-12-28T01:17:20;95757.16;;;5.28;86.17
21838;BME280;11081;45.946;6.140;2023-12-28T01:19:48;95755.53;;;5.27;86.93
21838;BME280;11081;45.946;6.140;2023-12-28T01:22:16;95754.22;;;5.31;85.97
21838;BME280;11081;45.946;6.140;2023-12-28T01:24:47;95754.84;;;5.33;84.67
21838;BME280;11081;45.946;6.140;2023-12-28T01:27:16;95760.00;;;5.33;84.37
21838;BME280;11081;45.946;6.140;2023-12-28T01:29:44;95752.88;;;5.35;82.94
21838;BME280;11081;45.946;6.140;2023-12-28T01:32:12;95758.06;;;5.35;82.94
21838;BME280;11081;45.946;6.140;2023-12-28T01:34:40;95761.63;;;5.34;81.70
21838;BME280;11081;45.946;6.140;2023-12-28T01:37:09;95774.63;;;5.26;82.53
21838;BME280;11081;45.946;6.140;2023-12-28T01:39:37;95773.69;;;5.19;82.50
21838;BME280;11081;45.946;6.140;2023-12-28T01:42:06;95785.31;;;5.23;81.26
21838;BME280;11081;45.946;6.140;2023-12-28T01:44:34;95789.22;;;5.19;81.18
21838;BME280;11081;45.946;6.140;2023-12-28T01:47:02;95788.28;;;5.12;81.34
21838;BME280;11081;45.946;6.140;2023-12-28T01:49:31;95785.69;;;5.12;81.07
21838;BME280;11081;45.946;6.140;2023-12-28T01:52:00;95781.84;;;5.08;81.36
21838;BME280;11081;45.946;6.140;2023-12-28T01:54:29;95783.16;;;5.04;81.16
21838;BME280;11081;45.946;6.140;2023-12-28T01:57:00;95788.69;;;5.01;81.47
21838;BME280;11081;45.946;6.140;2023-12-28T01:59:29;95786.72;;;5.03;80.35
21838;BME280;11081;45.946;6.140;2023-12-28T02:01:58;95782.53;;;5.02;80.87
21838;BME280;11081;45.946;6.140;2023-12-28T02:04:26;95786.09;;;5.01;81.57
21838;BME280;11081;45.946;6.140;2023-12-28T02:06:57;95785.41;;;5.07;80.04
21838;BME280;11081;45.946;6.140;2023-12-28T02:09:26;95788.28;;;5.12;79.13
21838;BME280;11081;45.946;6.140;2023-12-28T02:11:54;95793.56;;;5.18;79.11
21838;BME280;11081;45.946;6.140;2023-12-28T02:14:22;95802.19;;;5.11;79.30
21838;BME280;11081;45.946;6.140;2023-12-28T02:16:55;95795.69;;;5.15;79.26
21838;BME280;11081;45.946;6.140;2023-12-28T02:19:31;95791.84;;;5.11;78.05
21838;BME280;11081;45.946;6.140;2023-12-28T02:21:59;95788.53;;;4.94;78.71
21838;BME280;11081;45.946;6.140;2023-12-28T02:24:28;95795.84;;;4.90;79.56
21838;BME280;11081;45.946;6.140;2023-12-28T02:26:57;95790.19;;;4.87;79.88
21838;BME280;11081;45.946;6.140;2023-12-28T02:29:26;95796.19;;;4.87;80.03
21838;BME280;11081;45.946;6.140;2023-12-28T02:32:01;95802.97;;;4.88;80.16
21838;BME280;11081;45.946;6.140;2023-12-28T02:34:34;95801.69;;;4.84;79.54
21838;BME280;11081;45.946;6.140;2023-12-28T02:37:05;95801.47;;;4.94;80.77
21838;BME280;11081;45.946;6.140;2023-12-28T02:39:34;95783.56;;;5.15;80.10
21838;BME280;11081;45.946;6.140;2023-12-28T02:42:05;95785.97;;;5.17;79.59
21838;BME280;11081;45.946;6.140;2023-12-28T02:44:33;95786.31;;;5.22;79.65
21838;BME280;11081;45.946;6.140;2023-12-28T02:47:01;95784.38;;;5.16;79.14
21838;BME280;11081;45.946;6.140;2023-12-28T02:49:29;95786.38;;;5.06;80.18
21838;BME280;11081;45.946;6.140;2023-12-28T02:51:57;95787.38;;;5.05;80.83
21838;BME280;11081;45.946;6.140;2023-12-28T02:54:26;95787.03;;;5.08;82.23
21838;BME280;11081;45.946;6.140;2023-12-28T02:56:54;95785.06;;;5.10;84.12
21838;BME280;11081;45.946;6.140;2023-12-28T02:59:23;95796.34;;;5.17;83.75
21838;BME280;11081;45.946;6.140;2023-12-28T03:01:51;95787.59;;;5.18;84.03
21838;BME280;11081;45.946;6.140;2023-12-28T03:04:19;95798.88;;;5.25;83.22
21838;BME280;11081;45.946;6.140;2023-12-28T03:06:47;95795.97;;;5.28;83.75
21838;BME280;11081;45.946;6.140;2023-12-28T03:09:16;95785.31;;;5.23;84.32
21838;BME280;11081;45.946;6.140;2023-12-28T03:11:44;95794.06;;;5.22;83.87
21838;BME280;11081;45.946;6.140;2023-12-28T03:14:12;95795.31;;;5.26;83.22
21838;BME280;11081;45.946;6.140;2023-12-28T03:16:41;95797.84;;;5.34;83.38
21838;BME280;11081;45.946;6.140;2023-12-28T03:19:09;95801.16;;;5.20;82.88
21838;BME280;11081;45.946;6.140;2023-12-28T03:21:38;95805.41;;;5.13;83.53
21838;BME280;11081;45.946;6.140;2023-12-28T03:24:06;95809.66;;;5.06;85.14
21838;BME280;11081;45.946;6.140;2023-12-28T03:26:38;95806.78;;;5.01;84.93
21838;BME280;11081;45.946;6.140;2023-12-28T03:29:06;95805.50;;;4.97;84.80
21838;BME280;11081;45.946;6.140;2023-12-28T03:31:38;95812.97;;;4.92;86.77
21838;BME280;11081;45.946;6.140;2023-12-28T03:34:08;95799.06;;;4.93;86.56
21838;BME280;11081;45.946;6.140;2023-12-28T03:36:37;95799.69;;;4.95;86.31
21838;BME280;11081;45.946;6.140;2023-12-28T03:39:05;95793.19;;;4.99;86.95
21838;BME280;11081;45.946;6.140;2023-12-28T03:41:33;95794.50;;;5.03;86.70
21838;BME280;11081;45.946;6.140;2023-12-28T03:44:01;95796.56;;;5.07;85.89
21838;BME280;11081;45.946;6.140;2023-12-28T03:46:28;95777.13;;;5.11;86.61
21838;BME280;11081;45.946;6.140;2023-12-28T03:48:56;95787.47;;;5.11;85.87
21838;BME280;11081;45.946;6.140;2023-12-28T03:51:26;95784.72;;;5.13;86.55
21838;BME280;11081;45.946;6.140;2023-12-28T03:53:54;95782.13;;;5.13;86.99
21838;BME280;11081;45.946;6.140;2023-12-28T03:56:23;95784.03;;;5.19;86.82
21838;BME280;11081;45.946;6.140;2023-12-28T03:58:53;95778.53;;;5.22;85.44
21838;BME280;11081;45.946;6.140;2023-12-28T04:01:22;95778.53;;;5.22;86.63
21838;BME280;11081;45.946;6.140;2023-12-28T04:03:50;95777.06;;;5.19;86.37
21838;BME280;11081;45.946;6.140;2023-12-28T04:06:18;95791.31;;;5.24;86.20
21838;BME280;11081;45.946;6.140;2023-12-28T04:08:47;95772.31;;;5.31;85.59
21838;BME280;11081;45.946;6.140;2023-12-28T04:11:15;95774.28;;;5.29;86.12
21838;BME280;11081;45.946;6.140;2023-12-28T04:13:43;95769.44;;;5.26;86.26
21838;BME280;11081;45.946;6.140;2023-12-28T04:16:12;95773.03;;;5.25;86.85
21838;BME280;11081;45.946;6.140;2023-12-28T04:18:40;95763.81;;;5.23;87.41
21838;BME280;11081;45.946;6.140;2023-12-28T04:21:10;95768.50;;;5.19;86.46
21838;BME280;11081;45.946;6.140;2023-12-28T04:23:40;95768.50;;;5.19;86.93
21838;BME280;11081;45.946;6.140;2023-12-28T04:26:10;95765.63;;;5.14;87.31
21838;BME280;11081;45.946;6.140;2023-12-28T04:28:38;95760.47;;;5.14;88.52
21838;BME280;11081;45.946;6.140;2023-12-28T04:31:07;95764.84;;;5.13;88.28
21838;BME280;11081;45.946;6.140;2023-12-28T04:33:35;95763.22;;;5.12;89.27
21838;BME280;11081;45.946;6.140;2023-12-28T04:36:04;95764.03;;;5.13;89.21
21838;BME280;11081;45.946;6.140;2023-12-28T04:38:33;95759.66;;;5.13;89.28
21838;BME280;11081;45.946;6.140;2023-12-28T04:41:01;95752.69;;;5.14;88.83
21838;BME280;11081;45.946;6.140;2023-12-28T04:43:31;95753.56;;;5.06;88.96
21838;BME280;11081;45.946;6.140;2023-12-28T04:46:02;95756.69;;;5.02;89.04
21838;BME280;11081;45.946;6.140;2023-12-28T04:48:31;95755.97;;;5.08;89.72
21838;BME280;11081;45.946;6.140;2023-12-28T04:51:02;95754.47;;;5.13;89.19
21838;BME280;11081;45.946;6.140;2023-12-28T04:53:30;95749.78;;;5.17;88.91
21838;BME280;11081;45.946;6.140;2023-12-28T04:55:58;95756.56;;;5.18;88.64
21838;BME280;11081;45.946;6.140;2023-12-28T04:58:26;95767.59;;;5.12;87.72
21838;BME280;11081;45.946;6.140;2023-12-28T05:00:55;95761.44;;;5.13;88.44
21838;BME280;11081;45.946;6.140;2023-12-28T05:03:24;95762.41;;;5.12;88.22
21838;BME280;11081;45.946;6.140;2023-12-28T05:05:52;95768.75;;;5.09;89.02
21838;BME280;11081;45.946;6.140;2023-12-28T05:08:20;95762.75;;;5.09;88.31
21838;BME280;11081;45.946;6.140;2023-12-28T05:10:47;95773.75;;;5.11;88.85
21838;BME280;11081;45.946;6.140;2023-12-28T05:13:15;95776.38;;;5.03;88.50
21838;BME280;11081;45.946;6.140;2023-12-28T05:15:44;95781.00;;;4.84;85.91
21838;BME280;11081;45.946;6.140;2023-12-28T05:18:13;95770.06;;;4.74;86.40
21838;BME280;11081;45.946;6.140;2023-12-28T05:20:41;95768.44;;;4.73;88.32
21838;BME280;11081;45.946;6.140;2023-12-28T05:23:09;95774.75;;;4.71;89.09
21838;BME280;11081;45.946;6.140;2023-12-28T05:25:37;95770.06;;;4.74;89.40
21838;BME280;11081;45.946;6.140;2023-12-28T05:28:05;95772.97;;;4.79;88.83
21838;BME280;11081;45.946;6.140;2023-12-28T05:30:33;95775.69;;;4.78;89.57
21838;BME280;11081;45.946;6.140;2023-12-28T05:33:01;95776.97;;;4.82;88.88
21838;BME280;11081;45.946;6.140;2023-12-28T05:35:31;95764.69;;;4.84;88.72
21838;BME280;11081;45.946;6.140;2023-12-28T05:37:58;95762.28;;;4.82;89.05
21838;BME280;11081;45.946;6.140;2023-12-28T05:40:27;95761.13;;;4.85;89.44
21838;BME280;11081;45.946;6.140;2023-12-28T05:42:54;95758.03;;;4.89;88.81
21838;BME280;11081;45.946;6.140;2023-12-28T05:45:22;95767.69;;;4.96;89.97
21838;BME280;11081;45.946;6.140;2023-12-28T05:47:50;95770.59;;;5.01;89.77
21838;BME280;11081;45.946;6.140;2023-12-28T05:50:18;95771.84;;;5.05;89.46
21838;BME280;11081;45.946;6.140;2023-12-28T05:52:48;95771.03;;;5.04;88.95
21838;BME280;11081;45.946;6.140;2023-12-28T05:55:16;95768.28;;;5.06;89.34
21838;BME280;11081;45.946;6.140;2023-12-28T05:57:43;95769.91;;;5.07;88.57
21838;BME280;11081;45.946;6.140;2023-12-28T06:00:13;95776.56;;;5.01;88.49
21838;BME280;11081;45.946;6.140;2023-12-28T06:02:41;95762.50;;;4.96;89.48
21838;BME280;11081;45.946;6.140;2023-12-28T06:05:09;95760.91;;;4.95;89.80
21838;BME280;11081;45.946;6.140;2023-12-28T06:07:37;95747.31;;;5.01;88.95
21838;BME280;11081;45.946;6.140;2023-12-28T06:10:08;95757.94;;;5.06;88.37
21838;BME280;11081;45.946;6.140;2023-12-28T06:12:36;95752.41;;;5.09;88.99
21838;BME280;11081;45.946;6.140;2023-12-28T06:15:05;95764.38;;;5.10;88.32
21838;BME280;11081;45.946;6.140;2023-12-28T06:17:33;95771.50;;;5.08;88.30
21838;BME280;11081;45.946;6.140;2023-12-28T06:20:01;95769.25;;;5.05;88.64
21838;BME280;11081;45.946;6.140;2023-12-28T06:22:29;95764.53;;;4.77;85.80
21838;BME280;11081;45.946;6.140;2023-12-28T06:24:57;95766.25;;;4.62;87.40
21838;BME280;11081;45.946;6.140;2023-12-28T06:27:27;95755.22;;;4.68;88.73
21838;BME280;11081;45.946;6.140;2023-12-28T06:29:55;95746.44;;;4.77;89.01
21838;BME280;11081;45.946;6.140;2023-12-28T06:32:23;95746.16;;;4.72;86.95
21838;BME280;11081;45.946;6.140;2023-12-28T06:34:53;95744.88;;;4.68;86.73
21838;BME280;11081;45.946;6.140;2023-12-28T06:37:21;95745.56;;;4.62;87.68
21838;BME280;11081;45.946;6.140;2023-12-28T06:39:48;95755.97;;;4.46;88.04
21838;BME280;11081;45.946;6.140;2023-12-28T06:42:16;95751.53;;;4.23;92.25
21838;BME280;11081;45.946;6.140;2023-12-28T06:44:46;95767.63;;;4.34;92.01
21838;BME280;11081;45.946;6.140;2023-12-28T06:47:14;95764.06;;;4.43;91.25
21838;BME280;11081;45.946;6.140;2023-12-28T06:49:42;95770.06;;;4.27;91.55
21838;BME280;11081;45.946;6.140;2023-12-28T06:52:10;95781.19;;;4.36;92.08
21838;BME280;11081;45.946;6.140;2023-12-28T06:54:38;95784.47;;;4.69;91.53
21838;BME280;11081;45.946;6.140;2023-12-28T06:57:06;95779.84;;;4.87;90.57
21838;BME280;11081;45.946;6.140;2023-12-28T06:59:34;95785.16;;;4.94;88.31
21838;BME280;11081;45.946;6.140;2023-12-28T07:02:03;95792.34;;;4.75;87.24
21838;BME280;11081;45.946;6.140;2023-12-28T07:04:31;95797.91;;;4.56;85.89
21838;BME280;11081;45.946;6.140;2023-12-28T07:06:59;95805.69;;;4.48;87.93
21838;BME280;11081;45.946;6.140;2023-12-28T07:09:27;95787.56;;;4.56;89.01
21838;BME280;11081;45.946;6.140;2023-12-28T07:11:55;95788.53;;;4.63;90.87
21838;BME280;11081;45.946;6.140;2023-12-28T07:14:23;95781.53;;;4.72;90.45
21838;BME280;11081;45.946;6.140;2023-12-28T07:16:51;95777.78;;;4.82;89.75
21838;BME280;11081;45.946;6.140;2023-12-28T07:19:20;95775.16;;;4.90;88.93
21838;BME280;11081;45.946;6.140;2023-12-28T07:21:48;95777.84;;;4.97;87.29
21838;BME280;11081;45.946;6.140;2023-12-28T07:24:17;95774.78;;;5.02;85.16
21838;BME280;11081;45.946;6.140;2023-12-28T07:26:45;95763.91;;;5.06;84.09
21838;BME280;11081;45.946;6.140;2023-12-28T07:29:12;95769.19;;;5.13;83.69
21838;BME280;11081;45.946;6.140;2023-12-28T07:31:40;95762.06;;;5.15;83.79
21838;BME280;11081;45.946;6.140;2023-12-28T07:34:08;95769.31;;;5.19;82.98
21838;BME280;11081;45.946;6.140;2023-12-28T07:36:38;95764.28;;;5.26;82.96
21838;BME280;11081;45.946;6.140;2023-12-28T07:39:09;95761.16;;;5.08;83.85
21838;BME280;11081;45.946;6.140;2023-12-28T07:41:37;95765.72;;;4.98;84.42
21838;BME280;11081;45.946;6.140;2023-12-28T07:44:05;95769.63;;;4.94;85.38
21838;BME280;11081;45.946;6.140;2023-12-28T07:46:33;95773.19;;;4.93;85.16
21838;BME280;11081;45.946;6.140;2023-12-28T07:49:01;95771.59;;;4.92;85.44
21838;BME280;11081;45.946;6.140;2023-12-28T07:51:29;95780.94;;;5.01;84.05
21838;BME280;11081;45.946;6.140;2023-12-28T07:53:58;95779.06;;;4.86;83.51
21838;BME280;11081;45.946;6.140;2023-12-28T07:56:26;95778.41;;;4.84;84.05
21838;BME280;11081;45.946;6.140;2023-12-28T07:58:54;95771.47;;;4.85;84.60
21838;BME280;11081;45.946;6.140;2023-12-28T08:01:22;95769.50;;;4.87;84.13
21838;BME280;11081;45.946;6.140;2023-12-28T08:03:50;95775.50;;;4.87;85.06
21838;BME280;11081;45.946;6.140;2023-12-28T08:06:18;95772.56;;;4.90;83.91
21838;BME280;11081;45.946;6.140;2023-12-28T08:08:46;95773.81;;;4.95;84.37
21838;BME280;11081;45.946;6.140;2023-12-28T08:11:16;95770.25;;;4.96;83.70
21838;BME280;11081;45.946;6.140;2023-12-28T08:13:44;95765.06;;;5.04;82.89
21838;BME280;11081;45.946;6.140;2023-12-28T08:16:12;95768.28;;;5.06;83.07
21838;BME280;11081;45.946;6.140;2023-12-28T08:18:40;95766.97;;;5.10;82.64
21838;BME280;11081;45.946;6.140;2023-12-28T08:21:08;95767.59;;;5.12;83.32
21838;BME280;11081;45.946;6.140;2023-12-28T08:23:36;95768.69;;;5.17;82.53
21838;BME280;11081;45.946;6.140;2023-12-28T08:26:04;95763.47;;;5.26;81.26
21838;BME280;11081;45.946;6.140;2023-12-28T08:28:35;95766.78;;;5.34;82.11
21838;BME280;11081;45.946;6.140;2023-12-28T08:31:03;95770.47;;;5.40;81.15
21838;BME280;11081;45.946;6.140;2023-12-28T08:33:31;95769.97;;;5.44;81.67
21838;BME280;11081;45.946;6.140;2023-12-28T08:35:59;95774.97;;;5.46;81.51
21838;BME280;11081;45.946;6.140;2023-12-28T08:38:27;95775.44;;;5.49;80.76
21838;BME280;11081;45.946;6.140;2023-12-28T08:40:55;95775.06;;;5.53;81.54
21838;BME280;11081;45.946;6.140;2023-12-28T08:43:23;95765.06;;;5.49;81.93
21838;BME280;11081;45.946;6.140;2023-12-28T08:45:53;95763.00;;;5.45;82.59
21838;BME280;11081;45.946;6.140;2023-12-28T08:48:22;95771.75;;;5.44;82.19
21838;BME280;11081;45.946;6.140;2023-12-28T08:50:50;95773.53;;;5.43;83.22
21838;BME280;11081;45.946;6.140;2023-12-28T08:53:18;95778.72;;;5.43;80.86
21838;BME280;11081;45.946;6.140;2023-12-28T08:55:46;95784.88;;;5.42;80.88
21838;BME280;11081;45.946;6.140;2023-12-28T08:58:14;95774.72;;;5.33;82.20
21838;BME280;11081;45.946;6.140;2023-12-28T09:00:43;95774.97;;;5.23;83.57
21838;BME280;11081;45.946;6.140;2023-12-28T09:03:13;95769.09;;;5.29;83.27
21838;BME280;11081;45.946;6.140;2023-12-28T09:05:41;95767.75;;;5.41;79.92
21838;BME280;11081;45.946;6.140;2023-12-28T09:08:09;95762.75;;;5.55;79.02
21838;BME280;11081;45.946;6.140;2023-12-28T09:10:37;95757.69;;;5.61;79.61
21838;BME280;11081;45.946;6.140;2023-12-28T09:13:07;95765.63;;;5.60;80.61
21838;BME280;11081;45.946;6.140;2023-12-28T09:15:42;95779.56;;;5.59;81.75
21838;BME280;11081;45.946;6.140;2023-12-28T09:18:10;95781.50;;;5.57;82.09
21838;BME280;11081;45.946;6.140;2023-12-28T09:20:39;95778.88;;;5.65;80.59
21838;BME280;11081;45.946;6.140;2023-12-28T09:23:07;95771.03;;;5.73;80.26
21838;BME280;11081;45.946;6.140;2023-12-28T09:25:36;95775.50;;;5.79;81.33
21838;BME280;11081;45.946;6.140;2023-12-28T09:28:05;95775.81;;;5.84;81.05
21838;BME280;11081;45.946;6.140;2023-12-28T09:30:33;95779.66;;;5.88;81.77
21838;BME280;11081;45.946;6.140;2023-12-28T09:33:01;95778.97;;;5.94;81.66
21838;BME280;11081;45.946;6.140;2023-12-28T09:35:29;95778.25;;;6.00;80.24
21838;BME280;11081;45.946;6.140;2023-12-28T09:37:58;95792.41;;;6.13;79.56
21838;BME280;11081;45.946;6.140;2023-12-28T09:40:26;95785.97;;;6.08;81.25
21838;BME280;11081;45.946;6.140;2023-12-28T09:43:02;95778.81;;;6.10;81.92
21838;BME280;11081;45.946;6.140;2023-12-28T09:45:32;95791.16;;;6.08;82.63
21838;BME280;11081;45.946;6.140;2023-12-28T09:48:00;95783.56;;;6.07;82.60
21838;BME280;11081;45.946;6.140;2023-12-28T09:50:29;95784.81;;;6.11;82.89
21838;BME280;11081;45.946;6.140;2023-12-28T09:52:59;95779.91;;;6.16;81.18
21838;BME280;11081;45.946;6.140;2023-12-28T09:55:27;95788.56;;;6.23;80.42
21838;BME280;11081;45.946;6.140;2023-12-28T09:57:56;95784.66;;;6.27;79.46
21838;BME280;11081;45.946;6.140;2023-12-28T10:00:25;95778.31;;;6.30;79.28
21838;BME280;11081;45.946;6.140;2023-12-28T10:02:53;95777.31;;;6.31;80.99
21838;BME280;11081;45.946;6.140;2023-12-28T10:05:21;95779.13;;;6.30;82.81
21838;BME280;11081;45.946;6.140;2023-12-28T10:07:50;95785.09;;;6.31;81.06
21838;BME280;11081;45.946;6.140;2023-12-28T10:10:19;95789.91;;;6.34;80.74
21838;BME280;11081;45.946;6.140;2023-12-28T10:12:49;95792.25;;;6.29;80.20
21838;BME280;11081;45.946;6.140;2023-12-28T10:15:17;95787.97;;;6.36;78.61
21838;BME280;11081;45.946;6.140;2023-12-28T10:17:46;95790.44;;;6.44;77.13
21838;BME280;11081;45.946;6.140;2023-12-28T10:20:14;95792.97;;;6.52;76.35
21838;BME280;11081;45.946;6.140;2023-12-28T10:22:43;95787.50;;;6.62;75.59
21838;BME280;11081;45.946;6.140;2023-12-28T10:25:11;95784.84;;;6.70;75.84
21838;BME280;11081;45.946;6.140;2023-12-28T10:27:41;95788.47;;;6.76;75.75
21838;BME280;11081;45.946;6.140;2023-12-28T10:30:10;95779.34;;;6.80;75.98
21838;BME280;11081;45.946;6.140;2023-12-28T10:32:40;95783.00;;;6.85;76.82
21838;BME280;11081;45.946;6.140;2023-12-28T10:35:09;95781.50;;;6.91;77.82
21838;BME280;11081;45.946;6.140;2023-12-28T10:37:39;95776.03;;;6.86;78.90
21838;BME280;11081;45.946;6.140;2023-12-28T10:40:12;95781.50;;;6.76;80.62
21838;BME280;11081;45.946;6.140;2023-12-28T10:42:49;95785.72;;;6.62;82.29
21838;BME280;11081;45.946;6.140;2023-12-28T10:45:19;95796.19;;;6.54;82.73
21838;BME280;11081;45.946;6.140;2023-12-28T10:48:05;95800.66;;;6.31;83.00
21838;BME280;11081;45.946;6.140;2023-12-28T10:50:38;95798.22;;;6.44;81.56
21838;BME280;11081;45.946;6.140;2023-12-28T10:53:15;95800.13;;;6.50;79.48
21838;BME280;11081;45.946;6.140;2023-12-28T10:55:53;95797.25;;;6.75;74.14
21838;BME280;11081;45.946;6.140;2023-12-28T10:58:34;95793.97;;;7.02;73.38
21838;BME280;11081;45.946;6.140;2023-12-28T11:01:07;95785.38;;;7.16;72.05
21838;BME280;11081;45.946;6.140;2023-12-28T11:03:39;95779.69;;;7.27;74.45
21838;BME280;11081;45.946;6.140;2023-12-28T11:06:09;95779.56;;;7.36;73.99
21838;BME280;11081;45.946;6.140;2023-12-28T11:08:39;95780.94;;;7.53;72.18
21838;BME280;11081;45.946;6.140;2023-12-28T11:11:09;95775.84;;;7.66;71.37
21838;BME280;11081;45.946;6.140;2023-12-28T11:13:39;95772.78;;;7.77;71.10
21838;BME280;11081;45.946;6.140;2023-12-28T11:16:08;95768.03;;;7.87;71.13
21838;BME280;11081;45.946;6.140;2023-12-28T11:18:36;95772.50;;;7.93;70.74
21838;BME280;11081;45.946;6.140;2023-12-28T11:21:05;95769.75;;;8.02;70.71
21838;BME280;11081;45.946;6.140;2023-12-28T11:23:36;95767.63;;;8.12;71.25
21838;BME280;11081;45.946;6.140;2023-12-28T11:26:04;95767.69;;;8.18;70.64
21838;BME280;11081;45.946;6.140;2023-12-28T11:28:44;95762.75;;;8.30;71.57
21838;BME280;11081;45.946;6.140;2023-12-28T11:31:13;95757.66;;;8.43;70.37
21838;BME280;11081;45.946;6.140;2023-12-28T11:33:45;95756.28;;;8.47;70.62
21838;BME280;11081;45.946;6.140;2023-12-28T11:36:22;95761.69;;;8.52;70.91
21838;BME280;11081;45.946;6.140;2023-12-28T11:38:53;95767.38;;;8.63;70.78
21838;BME280;11081;45.946;6.140;2023-12-28T11:41:21;95770.19;;;8.68;70.58
21838;BME280;11081;45.946;6.140;2023-12-28T11:43:54;95774.56;;;8.61;70.99
21838;BME280;11081;45.946;6.140;2023-12-28T11:46:22;95772.88;;;8.46;70.08
21838;BME280;11081;45.946;6.140;2023-12-28T11:48:51;95767.16;;;8.58;69.96
21838;BME280;11081;45.946;6.140;2023-12-28T11:51:19;95764.38;;;8.66;69.78
21838;BME280;11081;45.946;6.140;2023-12-28T11:53:48;95759.78;;;8.68;71.03
21838;BME280;11081;45.946;6.140;2023-12-28T11:56:16;95757.38;;;8.73;70.04
21838;BME280;11081;45.946;6.140;2023-12-28T11:58:44;95752.19;;;8.73;70.60
21838;BME280;11081;45.946;6.140;2023-12-28T12:01:15;95746.78;;;8.68;71.88
21838;BME280;11081;45.946;6.140;2023-12-28T12:03:44;95748.38;;;8.69;71.08
21838;BME280;11081;45.946;6.140;2023-12-28T12:06:12;95743.03;;;8.77;69.67
21838;BME280;11081;45.946;6.140;2023-12-28T12:08:41;95742.63;;;8.80;68.89
21838;BME280;11081;45.946;6.140;2023-12-28T12:11:09;95745.03;;;8.88;68.64
21838;BME280;11081;45.946;6.140;2023-12-28T12:13:37;95734.66;;;8.95;68.82
21838;BME280;11081;45.946;6.140;2023-12-28T12:16:05;95726.28;;;8.99;68.26
21838;BME280;11081;45.946;6.140;2023-12-28T12:18:36;95726.28;;;8.99;68.20
21838;BME280;11081;45.946;6.140;2023-12-28T12:21:04;95731.88;;;8.96;68.85
21838;BME280;11081;45.946;6.140;2023-12-28T12:23:33;95725.47;;;9.05;69.10
21838;BME280;11081;45.946;6.140;2023-12-28T12:26:05;95728.09;;;9.05;68.76
21838;BME280;11081;45.946;6.140;2023-12-28T12:28:33;95729.09;;;9.04;68.89
21838;BME280;11081;45.946;6.140;2023-12-28T12:31:02;95723.47;;;9.07;68.85
21838;BME280;11081;45.946;6.140;2023-12-28T12:33:31;95729.91;;;9.11;69.31
21838;BME280;11081;45.946;6.140;2023-12-28T12:36:01;95730.72;;;9.19;68.81
21838;BME280;11081;45.946;6.140;2023-12-28T12:38:30;95720.53;;;9.24;68.51
21838;BME280;11081;45.946;6.140;2023-12-28T12:40:59;95712.91;;;9.22;67.77
21838;BME280;11081;45.946;6.140;2023-12-28T12:43:27;95709.69;;;9.27;67.28
21838;BME280;11081;45.946;6.140;2023-12-28T12:45:55;95703.50;;;9.28;67.71
21838;BME280;11081;45.946;6.140;2023-12-28T12:48:23;95709.50;;;9.35;67.66
21838;BME280;11081;45.946;6.140;2023-12-28T12:50:51;95695.91;;;9.39;66.86
21838;BME280;11081;45.946;6.140;2023-12-28T12:53:20;95687.09;;;9.40;66.87
21838;BME280;11081;45.946;6.140;2023-12-28T12:55:54;95690.69;;;9.46;67.15
21838;BME280;11081;45.946;6.140;2023-12-28T12:58:22;95694.50;;;9.50;65.78
21838;BME280;11081;45.946;6.140;2023-12-28T13:00:50;95691.09;;;9.50;67.58
21838;BME280;11081;45.946;6.140;2023-12-28T13:03:19;95689.47;;;9.55;66.91
21838;BME280;11081;45.946;6.140;2023-12-28T13:05:48;95682.25;;;9.57;67.52
21838;BME280;11081;45.946;6.140;2023-12-28T13:08:15;95682.28;;;9.64;67.37
21838;BME280;11081;45.946;6.140;2023-12-28T13:10:45;95669.03;;;9.65;66.79
21838;BME280;11081;45.946;6.140;2023-12-28T13:13:13;95661.03;;;9.67;67.44
21838;BME280;11081;45.946;6.140;2023-12-28T13:15:41;95657.03;;;9.64;66.71
21838;BME280;11081;45.946;6.140;2023-12-28T13:18:09;95658.63;;;9.65;66.53